createdAt,value
2023-04-27T00:00:41.589Z,0.53
2023-04-27T00:01:41.638Z,0.53
2023-04-27T00:02:41.834Z,0.53
2023-04-27T00:03:42.084Z,0.54
2023-04-27T00:04:42.138Z,0.53
2023-04-27T00:05:41.998Z,0.54
2023-04-27T00:06:41.915Z,0.54
2023-04-27T00:07:41.944Z,0.54
2023-04-27T00:08:42.006Z,0.53
2023-04-27T00:09:42.493Z,0.55
2023-04-27T00:10:42.121Z,0.54
2023-04-27T00:11:42.165Z,0.54
2023-04-27T00:12:42.204Z,0.55
2023-04-27T00:13:42.272Z,0.54
2023-04-27T00:14:42.514Z,0.55
2023-04-27T00:15:42.318Z,0.54
2023-04-27T00:16:42.393Z,0.53
2023-04-27T00:17:42.521Z,0.53
2023-04-27T00:18:42.484Z,0.54
2023-04-27T00:19:42.538Z,0.53
2023-04-27T00:20:42.604Z,0.54
2023-04-27T00:21:42.636Z,0.53
2023-04-27T00:22:42.688Z,0.54
2023-04-27T00:23:42.773Z,0.54
2023-04-27T00:24:42.848Z,0.53
2023-04-27T00:25:42.872Z,0.54
2023-04-27T00:26:43.003Z,0.53
2023-04-27T00:27:42.994Z,0.53
2023-04-27T00:28:43.022Z,0.54
2023-04-27T00:29:43.524Z,0.54
2023-04-27T00:30:43.135Z,0.54
2023-04-27T00:31:43.218Z,0.53
2023-04-27T00:32:43.306Z,0.54
2023-04-27T00:33:43.295Z,0.53
2023-04-27T00:34:43.358Z,0.52
2023-04-27T00:35:43.492Z,0.52
2023-04-27T00:36:43.445Z,0.52
2023-04-27T00:37:43.475Z,0.52
2023-04-27T00:38:43.533Z,0.52
2023-04-27T00:39:43.583Z,0.51
2023-04-27T00:40:43.990Z,0.51
2023-04-27T00:41:43.672Z,0.51
2023-04-27T00:42:43.709Z,0.51
2023-04-27T00:43:43.751Z,0.51
2023-04-27T00:44:43.800Z,0.53
2023-04-27T00:45:43.878Z,0.52
2023-04-27T00:46:43.874Z,0.51
2023-04-27T00:47:43.939Z,0.51
2023-04-27T00:48:43.970Z,0.52
2023-04-27T00:49:43.987Z,0.53
2023-04-27T00:50:44.046Z,0.51
2023-04-27T00:51:44.092Z,0.51
2023-04-27T00:52:44.127Z,0.51
2023-04-27T00:53:44.141Z,0.51
2023-04-27T00:54:44.213Z,0.51
2023-04-27T00:55:44.260Z,0.52
2023-04-27T00:56:44.280Z,0.51
2023-04-27T00:57:44.353Z,0.51
2023-04-27T00:58:44.407Z,0.52
2023-04-27T00:59:44.529Z,0.51
2023-04-27T01:00:44.497Z,0.53
2023-04-27T01:01:44.702Z,0.52
2023-04-27T01:02:44.705Z,0.52
2023-04-27T01:03:44.760Z,0.52
2023-04-27T01:04:44.662Z,0.51
2023-04-27T01:05:44.699Z,0.52
2023-04-27T01:06:44.743Z,0.51
2023-04-27T01:07:44.748Z,0.51
2023-04-27T01:08:44.792Z,0.52
2023-04-27T01:09:44.838Z,0.51
2023-04-27T01:10:44.915Z,0.51
2023-04-27T01:11:44.936Z,0.50
2023-04-27T01:12:44.996Z,0.51
2023-04-27T01:13:45.032Z,0.52
2023-04-27T01:14:45.056Z,0.51
2023-04-27T01:15:45.104Z,0.52
2023-04-27T01:16:45.214Z,0.51
2023-04-27T01:17:45.238Z,0.50
2023-04-27T01:18:45.221Z,0.51
2023-04-27T01:19:45.283Z,0.52
2023-04-27T01:20:45.304Z,0.52
2023-04-27T01:21:45.349Z,0.51
2023-04-27T01:22:45.398Z,0.53
2023-04-27T01:23:45.461Z,0.53
2023-04-27T01:24:45.469Z,0.52
2023-04-27T01:25:45.512Z,0.53
2023-04-27T01:26:45.524Z,0.52
2023-04-27T01:27:45.575Z,0.52
2023-04-27T01:28:45.606Z,0.53
2023-04-27T01:29:45.633Z,0.52
2023-04-27T01:30:45.679Z,0.51
2023-04-27T01:31:45.816Z,0.51
2023-04-27T01:32:45.763Z,0.52
2023-04-27T01:33:45.808Z,0.52
2023-04-27T01:34:45.843Z,0.53
2023-04-27T01:35:45.838Z,0.52
2023-04-27T01:36:45.885Z,0.52
2023-04-27T01:37:45.943Z,0.52
2023-04-27T01:38:45.969Z,0.53
2023-04-27T01:39:45.953Z,0.52
2023-04-27T01:40:46.028Z,0.51
2023-04-27T01:41:46.079Z,0.52
2023-04-27T01:42:46.110Z,0.53
2023-04-27T01:43:46.164Z,0.52
2023-04-27T01:44:46.194Z,0.52
2023-04-27T01:45:46.232Z,0.51
2023-04-27T01:46:46.446Z,0.51
2023-04-27T01:47:46.355Z,0.52
2023-04-27T01:48:46.379Z,0.51
2023-04-27T01:49:46.387Z,0.53
2023-04-27T01:50:46.416Z,0.51
2023-04-27T01:51:46.455Z,0.52
2023-04-27T01:52:46.494Z,0.52
2023-04-27T01:53:46.523Z,0.51
2023-04-27T01:54:46.578Z,0.51
2023-04-27T01:55:46.659Z,0.52
2023-04-27T01:56:46.691Z,0.53
2023-04-27T01:57:46.705Z,0.52
2023-04-27T01:58:46.770Z,0.53
2023-04-27T01:59:46.786Z,0.52
2023-04-27T02:00:46.816Z,0.51
2023-04-27T02:01:46.880Z,0.52
2023-04-27T02:02:46.996Z,0.51
2023-04-27T02:03:47.314Z,0.52
2023-04-27T02:04:47.461Z,0.51
2023-04-27T02:05:47.190Z,0.51
2023-04-27T02:06:47.029Z,0.51
2023-04-27T02:07:47.092Z,0.52
2023-04-27T02:08:47.173Z,0.52
2023-04-27T02:09:47.206Z,0.52
2023-04-27T02:10:47.226Z,0.52
2023-04-27T02:11:47.279Z,0.52
2023-04-27T02:12:47.304Z,0.52
2023-04-27T02:13:47.328Z,0.51
2023-04-27T02:14:47.403Z,0.51
2023-04-27T02:15:47.571Z,0.51
2023-04-27T02:16:47.456Z,0.50
2023-04-27T02:17:47.577Z,0.52
2023-04-27T02:18:47.497Z,0.51
2023-04-27T02:19:47.521Z,0.52
2023-04-27T02:20:47.548Z,0.52
2023-04-27T02:21:47.596Z,0.52
2023-04-27T02:22:47.618Z,0.52
2023-04-27T02:23:47.664Z,0.52
2023-04-27T02:24:47.705Z,0.52
2023-04-27T02:25:47.750Z,0.52
2023-04-27T02:26:47.792Z,0.51
2023-04-27T02:27:47.799Z,0.51
2023-04-27T02:28:47.828Z,0.52
2023-04-27T02:29:47.855Z,0.51
2023-04-27T02:30:47.852Z,0.52
2023-04-27T02:31:47.917Z,0.53
2023-04-27T02:32:47.953Z,0.52
2023-04-27T02:33:47.942Z,0.51
2023-04-27T02:34:47.942Z,0.52
2023-04-27T02:35:47.968Z,0.52
2023-04-27T02:36:47.984Z,0.51
2023-04-27T02:37:48.014Z,0.52
2023-04-27T02:38:48.028Z,0.51
2023-04-27T02:39:48.072Z,0.51
2023-04-27T02:40:48.082Z,0.53
2023-04-27T02:41:48.109Z,0.52
2023-04-27T02:42:48.140Z,0.51
2023-04-27T02:43:48.146Z,0.51
2023-04-27T02:44:48.139Z,0.51
2023-04-27T02:45:48.183Z,0.52
2023-04-27T02:46:48.280Z,0.52
2023-04-27T02:47:48.246Z,0.52
2023-04-27T02:48:48.237Z,0.52
2023-04-27T02:49:48.247Z,0.53
2023-04-27T02:50:48.284Z,0.52
2023-04-27T02:51:48.305Z,0.53
2023-04-27T02:52:48.321Z,0.52
2023-04-27T02:53:48.321Z,0.53
2023-04-27T02:54:48.393Z,0.52
2023-04-27T02:55:48.437Z,0.52
2023-04-27T02:56:48.385Z,0.52
2023-04-27T02:57:48.402Z,0.52
2023-04-27T02:58:48.442Z,0.51
2023-04-27T02:59:48.483Z,0.52
2023-04-27T03:00:49.088Z,0.54
2023-04-27T03:01:48.492Z,0.53
2023-04-27T03:02:48.631Z,0.53
2023-04-27T03:03:48.714Z,0.52
2023-04-27T03:04:48.676Z,0.53
2023-04-27T03:05:48.623Z,0.53
2023-04-27T03:06:48.671Z,0.54
2023-04-27T03:07:48.678Z,0.54
2023-04-27T03:08:48.649Z,0.54
2023-04-27T03:09:49.015Z,0.53
2023-04-27T03:10:48.704Z,0.53
2023-04-27T03:11:48.709Z,0.54
2023-04-27T03:12:48.753Z,0.54
2023-04-27T03:13:48.794Z,0.55
2023-04-27T03:14:48.773Z,0.54
2023-04-27T03:15:48.809Z,0.54
2023-04-27T03:16:48.927Z,0.53
2023-04-27T03:17:48.863Z,0.52
2023-04-27T03:18:48.818Z,0.53
2023-04-27T03:19:48.873Z,0.53
2023-04-27T03:20:48.899Z,0.53
2023-04-27T03:21:48.906Z,0.55
2023-04-27T03:22:48.949Z,0.54
2023-04-27T03:23:48.935Z,0.55
2023-04-27T03:24:48.991Z,0.54
2023-04-27T03:25:48.948Z,0.53
2023-04-27T03:26:49.019Z,0.54
2023-04-27T03:27:49.035Z,0.53
2023-04-27T03:28:49.023Z,0.53
2023-04-27T03:29:49.073Z,0.53
2023-04-27T03:30:49.065Z,0.55
2023-04-27T03:31:49.093Z,0.53
2023-04-27T03:32:49.083Z,0.54
2023-04-27T03:33:49.061Z,0.55
2023-04-27T03:34:49.062Z,0.53
2023-04-27T03:35:49.070Z,0.54
2023-04-27T03:36:49.128Z,0.53
2023-04-27T03:37:49.100Z,0.54
2023-04-27T03:38:49.143Z,0.52
2023-04-27T03:39:49.201Z,0.55
2023-04-27T03:40:49.180Z,0.54
2023-04-27T03:41:49.194Z,0.52
2023-04-27T03:42:49.246Z,0.54
2023-04-27T03:43:49.239Z,0.55
2023-04-27T03:44:49.249Z,0.54
2023-04-27T03:45:49.301Z,0.54
2023-04-27T03:46:49.289Z,0.55
2023-04-27T03:47:49.371Z,0.55
2023-04-27T03:48:49.309Z,0.55
2023-04-27T03:49:49.329Z,0.56
2023-04-27T03:50:49.383Z,0.54
2023-04-27T03:51:49.386Z,0.56
2023-04-27T03:52:49.394Z,0.55
2023-04-27T03:53:49.436Z,0.56
2023-04-27T03:54:49.557Z,0.57
2023-04-27T03:55:49.481Z,0.56
2023-04-27T03:56:49.466Z,0.57
2023-04-27T03:57:49.497Z,0.56
2023-04-27T03:58:49.555Z,0.55
2023-04-27T03:59:49.507Z,0.57
2023-04-27T04:00:49.571Z,0.56
2023-04-27T04:01:49.524Z,0.56
2023-04-27T04:02:49.829Z,0.57
2023-04-27T04:03:49.757Z,0.56
2023-04-27T04:04:49.708Z,0.56
2023-04-27T04:05:50.065Z,0.56
2023-04-27T04:06:49.643Z,0.56
2023-04-27T04:07:49.636Z,0.57
2023-04-27T04:08:49.647Z,0.57
2023-04-27T04:09:49.661Z,0.57
2023-04-27T04:10:49.677Z,0.57
2023-04-27T04:11:49.734Z,0.55
2023-04-27T04:12:49.683Z,0.56
2023-04-27T04:13:49.704Z,0.57
2023-04-27T04:14:49.758Z,0.56
2023-04-27T04:15:49.792Z,0.57
2023-04-27T04:16:49.741Z,0.56
2023-04-27T04:17:49.818Z,0.54
2023-04-27T04:18:49.776Z,0.56
2023-04-27T04:19:49.779Z,0.56
2023-04-27T04:20:49.827Z,0.56
2023-04-27T04:21:49.811Z,0.56
2023-04-27T04:22:49.817Z,0.56
2023-04-27T04:23:49.875Z,0.56
2023-04-27T04:24:49.869Z,0.56
2023-04-27T04:25:49.871Z,0.57
2023-04-27T04:26:49.884Z,0.56
2023-04-27T04:27:49.920Z,0.57
2023-04-27T04:28:49.936Z,0.57
2023-04-27T04:29:49.927Z,0.57
2023-04-27T04:30:49.981Z,0.56
2023-04-27T04:31:50.111Z,0.56
2023-04-27T04:32:50.026Z,0.56
2023-04-27T04:33:50.022Z,0.56
2023-04-27T04:34:50.109Z,0.57
2023-04-27T04:35:50.080Z,0.57
2023-04-27T04:36:50.113Z,0.56
2023-04-27T04:37:50.101Z,0.56
2023-04-27T04:38:50.084Z,0.58
2023-04-27T04:39:50.110Z,0.57
2023-04-27T04:40:50.146Z,0.57
2023-04-27T04:41:50.146Z,0.57
2023-04-27T04:42:50.167Z,0.58
2023-04-27T04:43:50.156Z,0.58
2023-04-27T04:44:50.203Z,0.57
2023-04-27T04:45:50.217Z,0.58
2023-04-27T04:46:50.286Z,0.58
2023-04-27T04:47:50.271Z,0.59
2023-04-27T04:48:51.645Z,0.58
2023-04-27T04:49:50.261Z,0.58
2023-04-27T04:50:50.284Z,0.59
2023-04-27T04:51:50.325Z,0.57
2023-04-27T04:52:50.323Z,0.57
2023-04-27T04:53:50.328Z,0.59
2023-04-27T04:54:50.357Z,0.59
2023-04-27T04:55:50.554Z,0.59
2023-04-27T04:56:50.380Z,0.58
2023-04-27T04:57:50.426Z,0.58
2023-04-27T04:58:50.419Z,0.60
2023-04-27T04:59:50.433Z,0.59
2023-04-27T05:00:50.594Z,0.59
2023-04-27T05:01:50.471Z,0.59
2023-04-27T05:02:50.558Z,0.59
2023-04-27T05:03:50.600Z,0.65
2023-04-27T05:04:50.492Z,0.67
2023-04-27T05:05:50.563Z,0.71
2023-04-27T05:06:50.499Z,0.68
2023-04-27T05:07:50.489Z,0.67
2023-04-27T05:08:50.522Z,0.64
2023-04-27T05:09:50.555Z,0.59
2023-04-27T05:10:50.561Z,0.56
2023-04-27T05:11:50.569Z,0.53
2023-04-27T05:12:50.599Z,0.53
2023-04-27T05:13:50.629Z,0.52
2023-04-27T05:14:50.681Z,0.50
2023-04-27T05:15:50.743Z,0.50
2023-04-27T05:16:50.694Z,0.51
2023-04-27T05:17:50.734Z,0.51
2023-04-27T05:18:50.771Z,0.50
2023-04-27T05:19:50.753Z,0.50
2023-04-27T05:20:50.798Z,0.51
2023-04-27T05:21:50.813Z,0.50
2023-04-27T05:22:50.862Z,0.52
2023-04-27T05:23:50.854Z,0.52
2023-04-27T05:24:50.865Z,0.52
2023-04-27T05:25:50.953Z,0.52
2023-04-27T05:26:50.971Z,0.52
2023-04-27T05:27:50.976Z,0.51
2023-04-27T05:28:51.022Z,0.52
2023-04-27T05:29:51.053Z,0.53
2023-04-27T05:30:51.116Z,0.54
2023-04-27T05:31:51.153Z,0.55
2023-04-27T05:32:51.167Z,0.57
2023-04-27T05:33:51.164Z,0.58
2023-04-27T05:34:51.212Z,0.58
2023-04-27T05:35:51.587Z,0.60
2023-04-27T05:36:51.292Z,0.60
2023-04-27T05:37:51.321Z,0.62
2023-04-27T05:38:51.352Z,0.65
2023-04-27T05:39:51.384Z,0.66
2023-04-27T05:40:51.406Z,0.66
2023-04-27T05:41:51.446Z,0.71
2023-04-27T05:42:51.461Z,0.71
2023-04-27T05:43:51.575Z,0.68
2023-04-27T05:44:51.549Z,0.67
2023-04-27T05:45:51.557Z,0.67
2023-04-27T05:46:51.612Z,0.64
2023-04-27T05:47:51.642Z,0.64
2023-04-27T05:48:51.687Z,0.64
2023-04-27T05:49:51.677Z,0.64
2023-04-27T05:50:52.097Z,0.63
2023-04-27T05:51:51.771Z,0.67
2023-04-27T05:52:51.814Z,0.62
2023-04-27T05:53:51.883Z,0.68
2023-04-27T05:54:51.881Z,0.74
2023-04-27T05:55:51.918Z,0.81
2023-04-27T05:56:52.007Z,0.87
2023-04-27T05:58:04.600Z,0.90
2023-04-27T05:58:53.013Z,0.90
2023-04-27T05:59:51.985Z,0.91
2023-04-27T06:00:51.984Z,0.96
2023-04-27T06:01:52.067Z,1.06
2023-04-27T06:02:52.196Z,1.24
2023-04-27T06:03:52.101Z,1.23
2023-04-27T06:04:52.022Z,1.17
2023-04-27T06:05:51.941Z,1.16
2023-04-27T06:06:51.952Z,1.30
2023-04-27T06:07:51.940Z,1.38
2023-04-27T06:08:51.940Z,1.54
2023-04-27T06:09:51.927Z,1.72
2023-04-27T06:10:51.910Z,1.86
2023-04-27T06:11:51.902Z,2.00
2023-04-27T06:12:51.911Z,2.14
2023-04-27T06:13:51.922Z,2.27
2023-04-27T06:14:51.876Z,2.43
2023-04-27T06:15:51.933Z,2.55
2023-04-27T06:16:51.931Z,2.65
2023-04-27T06:17:52.016Z,2.83
2023-04-27T06:18:52.035Z,2.96
2023-04-27T06:19:52.023Z,3.15
2023-04-27T06:20:52.118Z,3.29
2023-04-27T06:21:52.132Z,3.44
2023-04-27T06:22:52.163Z,3.59
2023-04-27T06:23:52.158Z,3.66
2023-04-27T06:24:53.159Z,3.68
2023-04-27T06:25:52.155Z,3.73
2023-04-27T06:26:52.175Z,3.86
2023-04-27T06:27:52.169Z,4.15
2023-04-27T06:28:52.094Z,4.49
2023-04-27T06:29:52.123Z,4.65
2023-04-27T06:30:52.104Z,4.91
2023-04-27T06:31:52.180Z,4.95
2023-04-27T06:32:52.189Z,5.12
2023-04-27T06:33:52.090Z,5.35
2023-04-27T06:34:52.061Z,5.40
2023-04-27T06:35:52.102Z,5.70
2023-04-27T06:36:52.092Z,5.84
2023-04-27T06:37:52.036Z,5.92
2023-04-27T06:38:52.081Z,6.14
2023-04-27T06:39:52.040Z,6.13
2023-04-27T06:40:52.623Z,6.47
2023-04-27T06:41:52.038Z,6.67
2023-04-27T06:42:52.025Z,6.75
2023-04-27T06:43:52.015Z,6.99
2023-04-27T06:44:52.026Z,7.00
2023-04-27T06:45:52.067Z,6.99
2023-04-27T06:46:51.994Z,7.42
2023-04-27T06:47:51.989Z,7.61
2023-04-27T06:48:51.997Z,8.97
2023-04-27T06:49:52.025Z,10.05
2023-04-27T06:50:52.210Z,9.82
2023-04-27T06:51:52.053Z,9.52
2023-04-27T06:52:52.098Z,8.70
2023-04-27T06:53:52.061Z,5.84
2023-04-27T06:54:52.094Z,5.96
2023-04-27T06:55:52.110Z,7.67
2023-04-27T06:56:52.141Z,7.81
2023-04-27T06:57:52.164Z,7.77
2023-04-27T06:58:52.191Z,7.44
2023-04-27T06:59:52.232Z,7.34
2023-04-27T07:00:52.239Z,7.60
2023-04-27T07:01:52.351Z,7.62
2023-04-27T07:02:52.313Z,7.70
2023-04-27T07:03:52.460Z,8.01
2023-04-27T07:04:52.496Z,8.25
2023-04-27T07:05:52.313Z,8.51
2023-04-27T07:06:52.384Z,9.06
2023-04-27T07:07:52.361Z,9.27
2023-04-27T07:08:52.364Z,9.60
2023-04-27T07:09:52.554Z,9.59
2023-04-27T07:10:52.410Z,9.88
2023-04-27T07:11:52.445Z,9.99
2023-04-27T07:12:52.495Z,10.25
2023-04-27T07:13:52.502Z,10.40
2023-04-27T07:14:52.532Z,10.61
2023-04-27T07:15:52.603Z,10.45
2023-04-27T07:16:52.663Z,10.41
2023-04-27T07:17:52.652Z,10.89
2023-04-27T07:18:52.701Z,10.72
2023-04-27T07:19:52.755Z,11.18
2023-04-27T07:20:52.837Z,11.22
2023-04-27T07:21:52.868Z,11.52
2023-04-27T07:22:52.901Z,11.70
2023-04-27T07:23:54.181Z,11.59
2023-04-27T07:24:53.012Z,11.60
2023-04-27T07:25:53.068Z,11.30
2023-04-27T07:26:53.147Z,11.53
2023-04-27T07:27:53.137Z,11.40
2023-04-27T07:28:53.203Z,11.46
2023-04-27T07:29:53.290Z,11.10
2023-04-27T07:30:53.316Z,10.91
2023-04-27T07:31:53.417Z,11.16
2023-04-27T07:32:53.541Z,11.80
2023-04-27T07:33:53.460Z,8.06
2023-04-27T07:34:54.497Z,4.83
2023-04-27T07:35:53.481Z,3.50
2023-04-27T07:36:53.510Z,2.06
2023-04-27T07:37:53.526Z,1.42
2023-04-27T07:38:53.533Z,1.18
2023-04-27T07:39:53.583Z,1.22
2023-04-27T07:40:53.591Z,1.56
2023-04-27T07:41:53.653Z,1.93
2023-04-27T07:42:53.665Z,2.30
2023-04-27T07:43:53.711Z,2.49
2023-04-27T07:44:53.734Z,2.47
2023-04-27T07:45:54.150Z,2.19
2023-04-27T07:46:53.756Z,1.72
2023-04-27T07:47:53.793Z,1.00
2023-04-27T07:48:53.808Z,1.00
2023-04-27T07:49:53.869Z,1.25
2023-04-27T07:50:53.855Z,1.38
2023-04-27T07:51:53.889Z,1.39
2023-04-27T07:52:53.998Z,1.24
2023-04-27T07:53:53.960Z,0.96
2023-04-27T07:54:54.013Z,1.08
2023-04-27T07:55:54.282Z,1.22
2023-04-27T07:56:54.114Z,1.42
2023-04-27T07:57:54.186Z,1.65
2023-04-27T07:58:54.194Z,1.88
2023-04-27T07:59:54.208Z,2.01
2023-04-27T08:00:54.216Z,2.22
2023-04-27T08:01:57.259Z,2.42
2023-04-27T08:02:55.456Z,2.44
2023-04-27T08:03:54.469Z,2.49
2023-04-27T08:04:54.628Z,2.64
2023-04-27T08:05:54.389Z,2.93
2023-04-27T08:06:54.870Z,3.34
2023-04-27T08:07:54.728Z,3.64
2023-04-27T08:08:54.229Z,3.81
2023-04-27T08:09:54.175Z,4.04
2023-04-27T08:10:55.180Z,4.05
2023-04-27T08:11:54.176Z,4.11
2023-04-27T08:12:54.167Z,4.24
2023-04-27T08:13:54.183Z,4.58
2023-04-27T08:14:54.156Z,5.01
2023-04-27T08:15:54.146Z,5.29
2023-04-27T08:16:54.175Z,5.49
2023-04-27T08:17:54.177Z,5.68
2023-04-27T08:18:54.130Z,5.90
2023-04-27T08:19:54.147Z,6.18
2023-04-27T08:20:54.232Z,6.29
2023-04-27T08:21:54.252Z,6.48
2023-04-27T08:22:54.333Z,6.64
2023-04-27T08:23:54.378Z,6.91
2023-04-27T08:24:54.374Z,6.96
2023-04-27T08:25:54.438Z,7.18
2023-04-27T08:26:54.467Z,7.43
2023-04-27T08:27:54.491Z,7.61
2023-04-27T08:28:54.554Z,7.81
2023-04-27T08:29:54.543Z,7.99
2023-04-27T08:30:54.670Z,8.47
2023-04-27T08:31:56.738Z,8.22
2023-04-27T08:32:54.796Z,8.34
2023-04-27T08:33:54.674Z,8.67
2023-04-27T08:35:01.787Z,9.07
2023-04-27T08:35:54.743Z,9.10
2023-04-27T08:36:54.711Z,9.19
2023-04-27T08:37:54.745Z,9.30
2023-04-27T08:38:54.718Z,9.74
2023-04-27T08:39:54.690Z,10.29
2023-04-27T08:40:54.674Z,9.94
2023-04-27T08:41:54.681Z,10.24
2023-04-27T08:42:54.673Z,10.51
2023-04-27T08:43:54.661Z,10.34
2023-04-27T08:44:54.656Z,9.52
2023-04-27T08:45:54.661Z,8.68
2023-04-27T08:46:54.720Z,6.01
2023-04-27T08:47:54.745Z,4.62
2023-04-27T08:48:54.628Z,2.38
2023-04-27T08:49:54.601Z,2.28
2023-04-27T08:50:54.629Z,2.36
2023-04-27T08:51:54.630Z,3.02
2023-04-27T08:52:54.582Z,3.73
2023-04-27T08:53:54.599Z,4.16
2023-04-27T08:54:54.589Z,4.51
2023-04-27T08:55:54.587Z,4.66
2023-04-27T08:56:54.581Z,4.45
2023-04-27T08:57:54.539Z,4.28
2023-04-27T08:58:54.575Z,3.64
2023-04-27T08:59:54.519Z,3.68
2023-04-27T09:00:54.547Z,4.29
2023-04-27T09:01:54.552Z,4.61
2023-04-27T09:02:54.635Z,4.96
2023-04-27T09:03:54.606Z,5.38
2023-04-27T09:04:54.666Z,5.65
2023-04-27T09:06:04.538Z,6.00
2023-04-27T09:06:55.504Z,6.02
2023-04-27T09:07:54.514Z,6.09
2023-04-27T09:08:54.490Z,6.27
2023-04-27T09:09:54.481Z,6.68
2023-04-27T09:10:54.477Z,7.31
2023-04-27T09:11:54.485Z,7.48
2023-04-27T09:12:54.438Z,7.54
2023-04-27T09:13:54.463Z,7.74
2023-04-27T09:14:54.449Z,7.92
2023-04-27T09:15:54.458Z,7.88
2023-04-27T09:16:54.433Z,8.03
2023-04-27T09:17:54.479Z,8.17
2023-04-27T09:18:54.438Z,8.21
2023-04-27T09:19:54.497Z,8.44
2023-04-27T09:20:54.502Z,8.64
2023-04-27T09:21:54.539Z,8.86
2023-04-27T09:22:54.529Z,8.94
2023-04-27T09:23:54.592Z,9.18
2023-04-27T09:24:54.571Z,9.48
2023-04-27T09:25:54.614Z,9.74
2023-04-27T09:26:54.615Z,9.82
2023-04-27T09:27:54.656Z,10.06
2023-04-27T09:28:54.665Z,9.93
2023-04-27T09:29:54.664Z,10.22
2023-04-27T09:30:54.723Z,10.52
2023-04-27T09:31:54.782Z,10.63
2023-04-27T09:32:54.749Z,10.93
2023-04-27T09:33:54.708Z,10.98
2023-04-27T09:34:54.710Z,11.13
2023-04-27T09:35:54.754Z,11.31
2023-04-27T09:36:54.730Z,11.49
2023-04-27T09:37:54.769Z,11.80
2023-04-27T09:38:54.770Z,12.01
2023-04-27T09:39:54.778Z,12.18
2023-04-27T09:40:54.800Z,12.33
2023-04-27T09:41:54.802Z,12.57
2023-04-27T09:42:54.802Z,12.72
2023-04-27T09:43:57.049Z,13.05
2023-04-27T09:44:54.819Z,13.48
2023-04-27T09:45:54.825Z,14.31
2023-04-27T09:46:55.184Z,14.96
2023-04-27T09:47:54.830Z,15.39
2023-04-27T09:48:54.739Z,15.48
2023-04-27T09:49:54.756Z,13.90
2023-04-27T09:50:54.751Z,14.76
2023-04-27T09:51:54.774Z,14.93
2023-04-27T09:52:54.754Z,14.87
2023-04-27T09:53:54.728Z,14.89
2023-04-27T09:54:54.761Z,14.27
2023-04-27T09:55:54.749Z,13.14
2023-04-27T09:56:54.711Z,12.43
2023-04-27T09:57:54.695Z,11.88
2023-04-27T09:58:54.684Z,11.64
2023-04-27T09:59:54.685Z,11.33
2023-04-27T10:00:54.780Z,11.20
2023-04-27T10:01:54.695Z,10.86
2023-04-27T10:02:54.749Z,10.51
2023-04-27T10:03:54.824Z,10.53
2023-04-27T10:04:54.738Z,10.38
2023-04-27T10:05:54.665Z,9.85
2023-04-27T10:06:55.501Z,9.65
2023-04-27T10:07:54.716Z,9.65
2023-04-27T10:08:54.723Z,9.58
2023-04-27T10:09:54.720Z,9.17
2023-04-27T10:10:54.730Z,9.02
2023-04-27T10:11:54.816Z,8.61
2023-04-27T10:12:54.831Z,8.37
2023-04-27T10:13:55.255Z,8.15
2023-04-27T10:14:54.921Z,8.26
2023-04-27T10:15:54.934Z,8.05
2023-04-27T10:16:55.026Z,8.09
2023-04-27T10:17:55.066Z,7.72
2023-04-27T10:18:55.097Z,7.46
2023-04-27T10:19:57.344Z,7.45
2023-04-27T10:20:55.112Z,7.53
2023-04-27T10:21:55.187Z,7.61
2023-04-27T10:22:55.071Z,7.44
2023-04-27T10:23:55.082Z,7.46
2023-04-27T10:24:55.104Z,7.21
2023-04-27T10:25:55.068Z,6.98
2023-04-27T10:26:55.108Z,7.00
2023-04-27T10:27:55.078Z,6.71
2023-04-27T10:28:55.066Z,6.70
2023-04-27T10:29:55.035Z,6.52
2023-04-27T10:30:55.061Z,6.57
2023-04-27T10:31:55.002Z,6.66
2023-04-27T10:32:55.036Z,6.51
2023-04-27T10:33:55.018Z,6.40
2023-04-27T10:34:54.995Z,6.15
2023-04-27T10:35:54.988Z,6.16
2023-04-27T10:36:55.009Z,6.05
2023-04-27T10:37:54.994Z,5.97
2023-04-27T10:38:54.951Z,5.95
2023-04-27T10:39:55.092Z,5.93
2023-04-27T10:40:54.989Z,5.76
2023-04-27T10:41:55.232Z,5.66
2023-04-27T10:42:54.957Z,5.55
2023-04-27T10:43:55.079Z,5.39
2023-04-27T10:44:54.957Z,5.32
2023-04-27T10:45:54.957Z,5.32
2023-04-27T10:46:54.971Z,5.19
2023-04-27T10:47:54.959Z,5.20
2023-04-27T10:48:54.926Z,5.15
2023-04-27T10:49:54.898Z,5.10
2023-04-27T10:50:54.981Z,5.17
2023-04-27T10:51:54.875Z,5.15
2023-04-27T10:52:54.882Z,5.07
2023-04-27T10:53:54.907Z,4.99
2023-04-27T10:54:54.858Z,5.02
2023-04-27T10:55:54.847Z,4.91
2023-04-27T10:56:55.191Z,4.83
2023-04-27T10:57:55.194Z,4.82
2023-04-27T10:58:54.870Z,4.74
2023-04-27T10:59:54.829Z,4.68
2023-04-27T11:00:54.836Z,4.67
2023-04-27T11:01:54.873Z,4.59
2023-04-27T11:02:54.902Z,4.59
2023-04-27T11:03:55.031Z,4.49
2023-04-27T11:04:54.973Z,4.47
2023-04-27T11:05:56.501Z,4.36
2023-04-27T11:06:55.691Z,4.33
2023-04-27T11:07:55.268Z,4.21
2023-04-27T11:08:55.352Z,4.14
2023-04-27T11:09:55.397Z,4.07
2023-04-27T11:10:55.418Z,4.10
2023-04-27T11:11:55.534Z,4.07
2023-04-27T11:12:55.573Z,4.03
2023-04-27T11:13:55.645Z,3.97
2023-04-27T11:14:55.624Z,3.93
2023-04-27T11:15:55.724Z,3.88
2023-04-27T11:16:55.771Z,3.80
2023-04-27T11:17:55.867Z,3.77
2023-04-27T11:18:56.624Z,3.69
2023-04-27T11:19:55.924Z,3.71
2023-04-27T11:20:55.954Z,3.69
2023-04-27T11:21:56.208Z,3.62
2023-04-27T11:22:56.055Z,3.63
2023-04-27T11:23:56.133Z,3.59
2023-04-27T11:24:56.207Z,3.61
2023-04-27T11:25:56.212Z,3.55
2023-04-27T11:26:56.286Z,3.43
2023-04-27T11:27:56.374Z,3.44
2023-04-27T11:28:56.355Z,3.41
2023-04-27T11:29:56.402Z,3.32
2023-04-27T11:30:56.441Z,3.32
2023-04-27T11:31:56.602Z,3.32
2023-04-27T11:32:56.564Z,3.31
2023-04-27T11:33:56.560Z,3.27
2023-04-27T11:34:58.426Z,3.21
2023-04-27T11:35:56.765Z,3.22
2023-04-27T11:37:03.674Z,3.24
2023-04-27T11:37:57.578Z,3.25
2023-04-27T11:38:56.652Z,3.17
2023-04-27T11:39:56.597Z,3.00
2023-04-27T11:40:56.549Z,2.98
2023-04-27T11:41:56.532Z,2.95
2023-04-27T11:42:56.577Z,3.19
2023-04-27T11:43:56.519Z,3.31
2023-04-27T11:44:56.586Z,3.30
2023-04-27T11:45:56.522Z,3.22
2023-04-27T11:46:56.574Z,3.09
2023-04-27T11:47:56.546Z,2.94
2023-04-27T11:48:56.526Z,2.97
2023-04-27T11:49:56.576Z,2.90
2023-04-27T11:50:56.589Z,2.86
2023-04-27T11:51:56.729Z,2.83
2023-04-27T11:52:56.648Z,2.78
2023-04-27T11:53:56.722Z,2.73
2023-04-27T11:54:56.779Z,2.71
2023-04-27T11:55:56.750Z,2.68
2023-04-27T11:56:56.791Z,2.70
2023-04-27T11:57:56.833Z,2.70
2023-04-27T11:58:56.850Z,2.67
2023-04-27T11:59:56.914Z,2.63
2023-04-27T12:00:56.919Z,2.61
2023-04-27T12:01:57.026Z,2.59
2023-04-27T12:02:57.134Z,2.63
2023-04-27T12:03:58.089Z,2.57
2023-04-27T12:04:57.145Z,2.54
2023-04-27T12:06:04.038Z,2.54
2023-04-27T12:06:57.948Z,2.55
2023-04-27T12:07:56.940Z,2.55
2023-04-27T12:08:56.926Z,2.52
2023-04-27T12:09:58.427Z,2.47
2023-04-27T12:10:56.950Z,2.55
2023-04-27T12:11:56.921Z,2.47
2023-04-27T12:12:56.925Z,2.44
2023-04-27T12:13:56.952Z,2.37
2023-04-27T12:14:56.886Z,2.37
2023-04-27T12:15:58.515Z,2.33
2023-04-27T12:16:56.953Z,2.33
2023-04-27T12:17:56.928Z,2.34
2023-04-27T12:18:56.869Z,2.33
2023-04-27T12:19:56.916Z,2.34
2023-04-27T12:20:56.889Z,2.35
2023-04-27T12:21:56.954Z,2.35
2023-04-27T12:22:56.993Z,2.34
2023-04-27T12:23:56.987Z,2.32
2023-04-27T12:24:56.990Z,2.32
2023-04-27T12:25:57.023Z,2.29
2023-04-27T12:26:57.062Z,2.26
2023-04-27T12:27:57.081Z,2.28
2023-04-27T12:28:57.097Z,2.27
2023-04-27T12:29:57.099Z,2.23
2023-04-27T12:30:57.166Z,2.23
2023-04-27T12:31:57.250Z,2.23
2023-04-27T12:32:57.211Z,2.23
2023-04-27T12:33:57.164Z,2.19
2023-04-27T12:34:57.192Z,2.14
2023-04-27T12:35:57.444Z,2.18
2023-04-27T12:36:57.270Z,2.14
2023-04-27T12:37:57.205Z,2.09
2023-04-27T12:38:57.221Z,2.12
2023-04-27T12:39:57.224Z,2.10
2023-04-27T12:40:57.230Z,2.09
2023-04-27T12:41:57.246Z,2.07
2023-04-27T12:42:59.161Z,2.07
2023-04-27T12:43:57.302Z,2.06
2023-04-27T12:44:57.299Z,2.03
2023-04-27T12:45:57.256Z,2.02
2023-04-27T12:46:57.313Z,1.97
2023-04-27T12:48:02.722Z,1.94
2023-04-27T12:48:58.262Z,1.95
2023-04-27T12:49:57.243Z,1.95
2023-04-27T12:50:57.249Z,1.94
2023-04-27T12:51:57.222Z,1.93
2023-04-27T12:52:57.173Z,1.93
2023-04-27T12:53:59.232Z,1.93
2023-04-27T12:54:57.216Z,1.91
2023-04-27T12:55:57.157Z,1.88
2023-04-27T12:56:57.151Z,1.90
2023-04-27T12:57:57.198Z,1.87
2023-04-27T12:58:57.172Z,1.89
2023-04-27T12:59:58.426Z,1.86
2023-04-27T13:01:04.185Z,1.87
2023-04-27T13:01:57.261Z,1.87
2023-04-27T13:02:57.353Z,1.88
2023-04-27T13:03:57.262Z,1.87
2023-04-27T13:04:57.130Z,1.85
2023-04-27T13:05:57.166Z,1.79
2023-04-27T13:06:57.110Z,1.76
2023-04-27T13:07:57.123Z,1.75
2023-04-27T13:08:57.079Z,1.72
2023-04-27T13:09:57.062Z,1.70
2023-04-27T13:10:57.061Z,1.69
2023-04-27T13:11:58.227Z,1.68
2023-04-27T13:12:57.054Z,1.69
2023-04-27T13:13:57.071Z,1.65
2023-04-27T13:14:57.030Z,1.66
2023-04-27T13:15:57.144Z,1.65
2023-04-27T13:16:57.026Z,1.59